sensor_id;sensor_type;location;lat;lon;timestamp;pressure;altitude;pressure_sealevel;temperature;humidity
69247;BME280;56358;56.328;43.992;2024-02-23T00:01:52;101730.59;;;-6.43;69.35
69247;BME280;56358;56.328;43.992;2024-02-23T00:03:53;101728.81;;;-6.46;69.57
69247;BME280;56358;56.328;43.992;2024-02-23T00:05:55;101741.81;;;-6.50;69.20
69247;BME280;56358;56.328;43.992;2024-02-23T00:07:56;101725.19;;;-6.59;69.15
69247;BME280;56358;56.328;43.992;2024-02-23T00:09:57;101730.41;;;-6.59;69.70
69247;BME280;56358;56.328;43.992;2024-02-23T00:11:57;101729.63;;;-6.50;69.70
69247;BME280;56358;56.328;43.992;2024-02-23T00:13:58;101718.22;;;-6.60;69.50
69247;BME280;56358;56.328;43.992;2024-02-23T00:15:59;101733.97;;;-6.52;69.55
69247;BME280;56358;56.328;43.992;2024-02-23T00:18:00;101710.38;;;-6.61;69.43
69247;BME280;56358;56.328;43.992;2024-02-23T00:20:00;101716.47;;;-6.59;69.33
69247;BME280;56358;56.328;43.992;2024-02-23T00:22:01;101722.66;;;-6.52;69.50
69247;BME280;56358;56.328;43.992;2024-02-23T00:24:02;101707.00;;;-6.52;69.52
69247;BME280;56358;56.328;43.992;2024-02-23T00:26:03;101727.94;;;-6.46;69.33
69247;BME280;56358;56.328;43.992;2024-02-23T00:28:04;101710.53;;;-6.49;69.41
69247;BME280;56358;56.328;43.992;2024-02-23T00:30:05;101726.31;;;-6.38;69.47
69247;BME280;56358;56.328;43.992;2024-02-23T00:32:06;101699.97;;;-6.57;69.34
69247;BME280;56358;56.328;43.992;2024-02-23T00:34:07;101721.91;;;-6.42;69.13
69247;BME280;56358;56.328;43.992;2024-02-23T00:36:11;101734.13;;;-6.40;69.14
69247;BME280;56358;56.328;43.992;2024-02-23T00:38:11;101650.00;;;-6.94;68.91
69247;BME280;56358;56.328;43.992;2024-02-23T00:40:12;101632.44;;;-7.05;69.36
69247;BME280;56358;56.328;43.992;2024-02-23T00:42:15;101710.38;;;-6.63;69.51
69247;BME280;56358;56.328;43.992;2024-02-23T00:44:15;101717.41;;;-6.55;69.12
69247;BME280;56358;56.328;43.992;2024-02-23T00:46:16;101725.13;;;-6.62;69.31
69247;BME280;56358;56.328;43.992;2024-02-23T00:48:17;101740.84;;;-6.59;69.26
69247;BME280;56358;56.328;43.992;2024-02-23T00:50:17;101610.44;;;-7.28;69.23
69247;BME280;56358;56.328;43.992;2024-02-23T00:52:18;101735.53;;;-6.65;69.31
69247;BME280;56358;56.328;43.992;2024-02-23T00:54:19;101720.66;;;-6.74;69.00
69247;BME280;56358;56.328;43.992;2024-02-23T00:56:20;101730.25;;;-6.71;69.20
69247;BME280;56358;56.328;43.992;2024-02-23T00:58:20;101703.13;;;-6.85;69.22
69247;BME280;56358;56.328;43.992;2024-02-23T01:00:21;101738.00;;;-6.76;69.73
69247;BME280;56358;56.328;43.992;2024-02-23T01:02:22;101765.06;;;-6.69;69.50
69247;BME280;56358;56.328;43.992;2024-02-23T01:04:23;101712.78;;;-6.75;69.68
69247;BME280;56358;56.328;43.992;2024-02-23T01:06:23;101737.31;;;-6.62;69.72
69247;BME280;56358;56.328;43.992;2024-02-23T01:08:25;101743.34;;;-6.66;70.16
69247;BME280;56358;56.328;43.992;2024-02-23T01:10:26;101731.22;;;-6.63;69.92
69247;BME280;56358;56.328;43.992;2024-02-23T01:12:27;101735.47;;;-6.71;69.85
69247;BME280;56358;56.328;43.992;2024-02-23T01:14:28;101733.78;;;-6.66;69.85
69247;BME280;56358;56.328;43.992;2024-02-23T01:16:29;101662.84;;;-7.06;69.62
69247;BME280;56358;56.328;43.992;2024-02-23T01:18:29;101731.16;;;-6.66;69.35
69247;BME280;56358;56.328;43.992;2024-02-23T01:20:30;101639.16;;;-7.23;69.39
69247;BME280;56358;56.328;43.992;2024-02-23T01:22:31;101731.13;;;-6.72;69.58
69247;BME280;56358;56.328;43.992;2024-02-23T01:24:32;101650.44;;;-7.24;69.56
69247;BME280;56358;56.328;43.992;2024-02-23T01:26:33;101740.53;;;-6.82;69.60
69247;BME280;56358;56.328;43.992;2024-02-23T01:28:33;101730.13;;;-6.80;69.46
69247;BME280;56358;56.328;43.992;2024-02-23T01:30:34;101711.78;;;-6.88;69.74
69247;BME280;56358;56.328;43.992;2024-02-23T01:32:35;101714.38;;;-6.88;69.67
69247;BME280;56358;56.328;43.992;2024-02-23T01:34:37;101638.94;;;-7.37;70.27
69247;BME280;56358;56.328;43.992;2024-02-23T01:36:38;101646.03;;;-7.28;69.98
69247;BME280;56358;56.328;43.992;2024-02-23T01:38:39;101722.19;;;-6.88;69.86
69247;BME280;56358;56.328;43.992;2024-02-23T01:40:40;101738.72;;;-6.87;69.76
69247;BME280;56358;56.328;43.992;2024-02-23T01:42:41;101717.88;;;-6.86;69.78
69247;BME280;56358;56.328;43.992;2024-02-23T01:44:41;101736.09;;;-6.87;70.05
69247;BME280;56358;56.328;43.992;2024-02-23T01:46:43;101734.44;;;-6.81;69.88
69247;BME280;56358;56.328;43.992;2024-02-23T01:48:45;101734.44;;;-6.81;69.96
69247;BME280;56358;56.328;43.992;2024-02-23T01:50:46;101715.25;;;-6.86;69.85
69247;BME280;56358;56.328;43.992;2024-02-23T01:52:47;101712.59;;;-6.92;69.76
69247;BME280;56358;56.328;43.992;2024-02-23T01:54:48;101723.00;;;-6.92;69.80
69247;BME280;56358;56.328;43.992;2024-02-23T01:56:50;101736.19;;;-6.83;69.95
69247;BME280;56358;56.328;43.992;2024-02-23T01:58:51;101727.38;;;-6.91;69.87
69247;BME280;56358;56.328;43.992;2024-02-23T02:00:52;101734.44;;;-6.82;69.80
69247;BME280;56358;56.328;43.992;2024-02-23T02:02:53;101732.53;;;-6.94;69.50
69247;BME280;56358;56.328;43.992;2024-02-23T02:04:54;101751.69;;;-6.94;69.61
69247;BME280;56358;56.328;43.992;2024-02-23T02:06:56;101679.66;;;-7.45;70.00
69247;BME280;56358;56.328;43.992;2024-02-23T02:08:58;101746.25;;;-7.08;69.82
69247;BME280;56358;56.328;43.992;2024-02-23T02:10:58;101749.59;;;-7.16;70.47
69247;BME280;56358;56.328;43.992;2024-02-23T02:13:03;101753.16;;;-7.11;70.36
69247;BME280;56358;56.328;43.992;2024-02-23T02:15:05;101749.63;;;-7.13;69.99
69247;BME280;56358;56.328;43.992;2024-02-23T02:17:07;101759.22;;;-7.12;70.37
69247;BME280;56358;56.328;43.992;2024-02-23T02:19:08;101740.78;;;-7.25;69.86
69247;BME280;56358;56.328;43.992;2024-02-23T02:21:09;101759.13;;;-7.17;69.97
69247;BME280;56358;56.328;43.992;2024-02-23T02:23:10;101774.03;;;-7.08;70.16
69247;BME280;56358;56.328;43.992;2024-02-23T02:25:14;101749.63;;;-7.13;70.17
69247;BME280;56358;56.328;43.992;2024-02-23T02:27:16;101758.44;;;-7.07;70.52
69247;BME280;56358;56.328;43.992;2024-02-23T02:29:17;101757.34;;;-7.19;70.23
69247;BME280;56358;56.328;43.992;2024-02-23T02:31:18;101780.94;;;-7.10;69.97
69247;BME280;56358;56.328;43.992;2024-02-23T02:33:18;101756.44;;;-7.23;70.18
69247;BME280;56358;56.328;43.992;2024-02-23T02:35:19;101775.59;;;-7.19;70.25
69247;BME280;56358;56.328;43.992;2024-02-23T02:37:20;101768.72;;;-7.14;70.21
69247;BME280;56358;56.328;43.992;2024-02-23T02:39:21;101763.38;;;-7.22;70.22
69247;BME280;56358;56.328;43.992;2024-02-23T02:41:24;101773.06;;;-7.15;70.04
69247;BME280;56358;56.328;43.992;2024-02-23T02:43:28;101774.47;;;-7.35;70.29
69247;BME280;56358;56.328;43.992;2024-02-23T02:45:29;101790.31;;;-7.25;70.42
69247;BME280;56358;56.328;43.992;2024-02-23T02:47:29;101777.31;;;-7.21;70.36
69247;BME280;56358;56.328;43.992;2024-02-23T02:49:30;101768.59;;;-7.22;70.75
69247;BME280;56358;56.328;43.992;2024-02-23T02:51:31;101779.03;;;-7.22;70.20
69247;BME280;56358;56.328;43.992;2024-02-23T02:53:31;101718.53;;;-7.58;70.00
69247;BME280;56358;56.328;43.992;2024-02-23T02:55:32;101763.31;;;-7.28;70.66
69247;BME280;56358;56.328;43.992;2024-02-23T02:57:33;101747.47;;;-7.41;70.91
69247;BME280;56358;56.328;43.992;2024-02-23T02:59:34;101769.50;;;-7.20;70.61
69247;BME280;56358;56.328;43.992;2024-02-23T03:01:36;101754.56;;;-7.32;70.36
69247;BME280;56358;56.328;43.992;2024-02-23T03:03:36;101766.63;;;-7.37;70.78
69247;BME280;56358;56.328;43.992;2024-02-23T03:05:37;101788.44;;;-7.32;70.71
69247;BME280;56358;56.328;43.992;2024-02-23T03:07:38;101708.75;;;-7.72;70.24
69247;BME280;56358;56.328;43.992;2024-02-23T03:09:39;101765.75;;;-7.37;70.52
69247;BME280;56358;56.328;43.992;2024-02-23T03:11:39;101784.19;;;-7.27;70.54
69247;BME280;56358;56.328;43.992;2024-02-23T03:13:40;101782.34;;;-7.32;70.61
69247;BME280;56358;56.328;43.992;2024-02-23T03:15:41;101787.56;;;-7.32;70.68
69247;BME280;56358;56.328;43.992;2024-02-23T03:17:41;101750.72;;;-7.54;70.80
69247;BME280;56358;56.328;43.992;2024-02-23T03:19:42;101784.97;;;-7.32;70.67
69247;BME280;56358;56.328;43.992;2024-02-23T03:21:43;101798.00;;;-7.31;70.80
69247;BME280;56358;56.328;43.992;2024-02-23T03:23:43;101797.19;;;-7.27;70.83
69247;BME280;56358;56.328;43.992;2024-02-23T03:25:45;101783.22;;;-7.30;70.64
69247;BME280;56358;56.328;43.992;2024-02-23T03:27:46;101783.34;;;-7.24;70.53
69247;BME280;56358;56.328;43.992;2024-02-23T03:29:46;101747.16;;;-7.59;70.69
69247;BME280;56358;56.328;43.992;2024-02-23T03:31:47;101790.22;;;-7.28;70.77
69247;BME280;56358;56.328;43.992;2024-02-23T03:33:48;101776.97;;;-7.42;70.94
69247;BME280;56358;56.328;43.992;2024-02-23T03:35:48;101771.78;;;-7.40;70.86
69247;BME280;56358;56.328;43.992;2024-02-23T03:37:49;101785.81;;;-7.33;70.64
69247;BME280;56358;56.328;43.992;2024-02-23T03:39:50;101788.41;;;-7.33;70.80
69247;BME280;56358;56.328;43.992;2024-02-23T03:41:50;101791.06;;;-7.30;70.69
69247;BME280;56358;56.328;43.992;2024-02-23T03:43:51;101704.84;;;-7.96;70.69
69247;BME280;56358;56.328;43.992;2024-02-23T03:45:52;101798.84;;;-7.32;70.93
69247;BME280;56358;56.328;43.992;2024-02-23T03:47:53;101796.06;;;-7.43;71.20
69247;BME280;56358;56.328;43.992;2024-02-23T03:49:54;101808.31;;;-7.37;71.18
69247;BME280;56358;56.328;43.992;2024-02-23T03:51:54;101791.72;;;-7.42;71.17
69247;BME280;56358;56.328;43.992;2024-02-23T03:53:55;101796.06;;;-7.43;71.20
69247;BME280;56358;56.328;43.992;2024-02-23T03:55:59;101715.41;;;-7.88;71.36
69247;BME280;56358;56.328;43.992;2024-02-23T03:57:59;101802.19;;;-7.41;71.41
69247;BME280;56358;56.328;43.992;2024-02-23T04:00:00;101797.81;;;-7.43;71.42
69247;BME280;56358;56.328;43.992;2024-02-23T04:02:01;101785.53;;;-7.49;71.43
69247;BME280;56358;56.328;43.992;2024-02-23T04:04:02;101803.03;;;-7.42;71.25
69247;BME280;56358;56.328;43.992;2024-02-23T04:06:03;101763.41;;;-7.74;71.04
69247;BME280;56358;56.328;43.992;2024-02-23T04:08:04;101780.00;;;-7.67;71.52
69247;BME280;56358;56.328;43.992;2024-02-23T04:10:05;101799.34;;;-7.53;71.72
69247;BME280;56358;56.328;43.992;2024-02-23T04:12:06;101788.09;;;-7.52;71.58
69247;BME280;56358;56.328;43.992;2024-02-23T04:14:10;101803.06;;;-7.40;71.35
69247;BME280;56358;56.328;43.992;2024-02-23T04:16:11;101801.41;;;-7.36;71.44
69247;BME280;56358;56.328;43.992;2024-02-23T04:18:11;101801.31;;;-7.39;71.16
69247;BME280;56358;56.328;43.992;2024-02-23T04:20:12;101633.78;;;-8.41;70.81
69247;BME280;56358;56.328;43.992;2024-02-23T04:22:14;101796.94;;;-7.42;70.65
69247;BME280;56358;56.328;43.992;2024-02-23T04:24:14;101721.50;;;-7.86;71.12
69247;BME280;56358;56.328;43.992;2024-02-23T04:26:15;101817.09;;;-7.32;70.58
69247;BME280;56358;56.328;43.992;2024-02-23T04:28:16;101828.34;;;-7.34;70.52
69247;BME280;56358;56.328;43.992;2024-02-23T04:30:16;101818.84;;;-7.32;71.07
69247;BME280;56358;56.328;43.992;2024-02-23T04:32:17;101824.72;;;-7.43;70.72
69247;BME280;56358;56.328;43.992;2024-02-23T04:34:18;101822.34;;;-7.29;71.05
69247;BME280;56358;56.328;43.992;2024-02-23T04:36:19;101799.66;;;-7.36;70.73
69247;BME280;56358;56.328;43.992;2024-02-23T04:38:23;101802.28;;;-7.34;70.52
69247;BME280;56358;56.328;43.992;2024-02-23T04:40:23;101800.66;;;-7.28;71.10
69247;BME280;56358;56.328;43.992;2024-02-23T04:42:24;101827.84;;;-7.12;70.70
69247;BME280;56358;56.328;43.992;2024-02-23T04:44:25;101820.06;;;-7.09;70.49
69247;BME280;56358;56.328;43.992;2024-02-23T04:46:26;101817.41;;;-7.13;70.29
69247;BME280;56358;56.328;43.992;2024-02-23T04:48:27;101816.59;;;-7.09;70.17
69247;BME280;56358;56.328;43.992;2024-02-23T04:50:28;101839.38;;;-6.97;70.13
69247;BME280;56358;56.328;43.992;2024-02-23T04:52:28;101766.69;;;-7.34;69.69
69247;BME280;56358;56.328;43.992;2024-02-23T04:54:29;101824.47;;;-7.06;69.62
69247;BME280;56358;56.328;43.992;2024-02-23T04:56:30;101801.75;;;-7.15;69.13
69247;BME280;56358;56.328;43.992;2024-02-23T04:58:31;101828.81;;;-7.07;69.58
69247;BME280;56358;56.328;43.992;2024-02-23T05:00:32;101833.38;;;-6.92;69.99
69247;BME280;56358;56.328;43.992;2024-02-23T05:02:34;101821.28;;;-6.89;69.88
69247;BME280;56358;56.328;43.992;2024-02-23T05:04:35;101823.81;;;-6.93;69.29
69247;BME280;56358;56.328;43.992;2024-02-23T05:06:36;101823.81;;;-6.93;69.46
69247;BME280;56358;56.328;43.992;2024-02-23T05:08:37;101609.81;;;-8.25;69.45
69247;BME280;56358;56.328;43.992;2024-02-23T05:10:40;101773.59;;;-7.36;69.54
69247;BME280;56358;56.328;43.992;2024-02-23T05:12:41;101840.88;;;-7.12;69.25
69247;BME280;56358;56.328;43.992;2024-02-23T05:14:42;101830.56;;;-7.07;69.23
69247;BME280;56358;56.328;43.992;2024-02-23T05:16:42;101827.00;;;-7.11;69.15
69247;BME280;56358;56.328;43.992;2024-02-23T05:18:43;101835.75;;;-7.07;69.49
69247;BME280;56358;56.328;43.992;2024-02-23T05:20:45;101728.75;;;-7.70;69.53
69247;BME280;56358;56.328;43.992;2024-02-23T05:22:46;101848.81;;;-7.05;69.05
69247;BME280;56358;56.328;43.992;2024-02-23T05:24:47;101829.75;;;-7.01;69.37
69247;BME280;56358;56.328;43.992;2024-02-23T05:26:48;101835.13;;;-6.94;69.43
69247;BME280;56358;56.328;43.992;2024-02-23T05:28:49;101809.75;;;-7.02;69.03
69247;BME280;56358;56.328;43.992;2024-02-23T05:30:50;101759.81;;;-7.29;69.07
69247;BME280;56358;56.328;43.992;2024-02-23T05:32:50;101843.81;;;-6.92;69.25
69247;BME280;56358;56.328;43.992;2024-02-23T05:34:51;101767.69;;;-7.26;69.02
69247;BME280;56358;56.328;43.992;2024-02-23T05:36:54;101835.34;;;-6.77;68.91
69247;BME280;56358;56.328;43.992;2024-02-23T05:38:54;101835.28;;;-6.81;68.34
69247;BME280;56358;56.328;43.992;2024-02-23T05:40:55;101849.16;;;-6.84;68.45
69247;BME280;56358;56.328;43.992;2024-02-23T05:42:56;101845.72;;;-6.83;68.54
69247;BME280;56358;56.328;43.992;2024-02-23T05:44:56;101843.97;;;-6.82;68.84
69247;BME280;56358;56.328;43.992;2024-02-23T05:46:57;101843.19;;;-6.77;68.71
69247;BME280;56358;56.328;43.992;2024-02-23T05:48:58;101826.69;;;-6.74;68.93
69247;BME280;56358;56.328;43.992;2024-02-23T05:50:59;101832.88;;;-6.67;68.14
69247;BME280;56358;56.328;43.992;2024-02-23T05:53:00;101850.53;;;-6.51;68.27
69247;BME280;56358;56.328;43.992;2024-02-23T05:55:00;101839.84;;;-6.68;67.66
69247;BME280;56358;56.328;43.992;2024-02-23T05:57:01;101783.56;;;-7.09;67.47
69247;BME280;56358;56.328;43.992;2024-02-23T05:59:03;101858.13;;;-6.66;67.62
69247;BME280;56358;56.328;43.992;2024-02-23T06:01:04;101860.72;;;-6.68;67.99
69247;BME280;56358;56.328;43.992;2024-02-23T06:03:04;101851.09;;;-6.70;67.83
69247;BME280;56358;56.328;43.992;2024-02-23T06:05:05;101864.38;;;-6.55;68.18
69247;BME280;56358;56.328;43.992;2024-02-23T06:07:07;101830.28;;;-6.67;67.67
69247;BME280;56358;56.328;43.992;2024-02-23T06:09:08;101858.25;;;-6.59;67.47
69247;BME280;56358;56.328;43.992;2024-02-23T06:11:10;101762.00;;;-7.00;67.32
69247;BME280;56358;56.328;43.992;2024-02-23T06:13:10;101839.75;;;-6.74;67.30
69247;BME280;56358;56.328;43.992;2024-02-23T06:15:11;101767.78;;;-7.19;67.08
69247;BME280;56358;56.328;43.992;2024-02-23T06:17:12;101888.78;;;-6.51;67.27
69247;BME280;56358;56.328;43.992;2024-02-23T06:19:13;101883.69;;;-6.42;67.67
69247;BME280;56358;56.328;43.992;2024-02-23T06:21:14;101761.75;;;-7.15;67.19
69247;BME280;56358;56.328;43.992;2024-02-23T06:23:16;101854.00;;;-6.50;67.58
69247;BME280;56358;56.328;43.992;2024-02-23T06:25:17;101846.28;;;-6.44;67.58
69247;BME280;56358;56.328;43.992;2024-02-23T06:27:18;101875.22;;;-6.26;66.88
69247;BME280;56358;56.328;43.992;2024-02-23T06:29:19;101762.41;;;-6.74;66.89
69247;BME280;56358;56.328;43.992;2024-02-23T06:31:20;101850.06;;;-6.20;66.41
69247;BME280;56358;56.328;43.992;2024-02-23T06:33:20;101877.13;;;-6.15;66.35
69247;BME280;56358;56.328;43.992;2024-02-23T06:35:21;101877.16;;;-6.12;66.34
69247;BME280;56358;56.328;43.992;2024-02-23T06:37:22;101877.94;;;-6.18;66.23
69247;BME280;56358;56.328;43.992;2024-02-23T06:39:23;101879.72;;;-6.15;66.45
69247;BME280;56358;56.328;43.992;2024-02-23T06:41:24;101869.31;;;-6.12;66.10
69247;BME280;56358;56.328;43.992;2024-02-23T06:43:25;101779.06;;;-6.62;65.73
69247;BME280;56358;56.328;43.992;2024-02-23T06:45:26;101893.00;;;-5.95;65.46
69247;BME280;56358;56.328;43.992;2024-02-23T06:47:26;101891.25;;;-5.99;65.88
69247;BME280;56358;56.328;43.992;2024-02-23T06:49:27;101880.81;;;-5.95;65.68
69247;BME280;56358;56.328;43.992;2024-02-23T06:51:28;101884.38;;;-5.90;65.41
69247;BME280;56358;56.328;43.992;2024-02-23T06:53:29;101895.88;;;-5.77;65.30
69247;BME280;56358;56.328;43.992;2024-02-23T06:55:29;101882.72;;;-5.83;65.46
69247;BME280;56358;56.328;43.992;2024-02-23T06:57:30;101876.63;;;-5.83;65.60
69247;BME280;56358;56.328;43.992;2024-02-23T06:59:31;101884.63;;;-5.69;65.71
69247;BME280;56358;56.328;43.992;2024-02-23T07:01:32;101907.28;;;-5.68;65.80
69247;BME280;56358;56.328;43.992;2024-02-23T07:03:35;101894.31;;;-5.59;65.17
69247;BME280;56358;56.328;43.992;2024-02-23T07:05:36;101883.63;;;-5.82;65.11
69247;BME280;56358;56.328;43.992;2024-02-23T07:07:37;101882.94;;;-5.66;64.82
69247;BME280;56358;56.328;43.992;2024-02-23T07:09:38;101909.09;;;-5.63;64.94
69247;BME280;56358;56.328;43.992;2024-02-23T07:11:39;101892.53;;;-5.65;64.99
69247;BME280;56358;56.328;43.992;2024-02-23T07:13:44;101893.38;;;-5.66;65.25
69247;BME280;56358;56.328;43.992;2024-02-23T07:15:45;101885.53;;;-5.67;65.03
69247;BME280;56358;56.328;43.992;2024-02-23T07:17:46;101800.66;;;-6.07;64.64
69247;BME280;56358;56.328;43.992;2024-02-23T07:19:47;101903.22;;;-5.45;64.50
69247;BME280;56358;56.328;43.992;2024-02-23T07:21:48;101886.69;;;-5.42;64.73
69247;BME280;56358;56.328;43.992;2024-02-23T07:23:48;101896.41;;;-5.27;64.42
69247;BME280;56358;56.328;43.992;2024-02-23T07:25:49;101895.47;;;-5.37;63.64
69247;BME280;56358;56.328;43.992;2024-02-23T07:27:51;101913.72;;;-5.39;63.94
69247;BME280;56358;56.328;43.992;2024-02-23T07:29:51;101852.44;;;-5.65;64.03
69247;BME280;56358;56.328;43.992;2024-02-23T07:31:52;101887.56;;;-5.40;63.92
69247;BME280;56358;56.328;43.992;2024-02-23T07:33:53;101757.13;;;-6.09;63.82
69247;BME280;56358;56.328;43.992;2024-02-23T07:35:53;101902.59;;;-5.17;63.39
69247;BME280;56358;56.328;43.992;2024-02-23T07:37:55;101927.00;;;-5.18;63.97
69247;BME280;56358;56.328;43.992;2024-02-23T07:39:56;101823.59;;;-5.76;63.90
69247;BME280;56358;56.328;43.992;2024-02-23T07:41:56;101901.63;;;-5.29;64.22
69247;BME280;56358;56.328;43.992;2024-02-23T07:43:57;101914.00;;;-5.14;64.40
69247;BME280;56358;56.328;43.992;2024-02-23T07:45:58;101911.47;;;-5.05;63.70
69247;BME280;56358;56.328;43.992;2024-02-23T07:47:59;101913.22;;;-5.02;63.67
69247;BME280;56358;56.328;43.992;2024-02-23T07:49:59;101901.84;;;-5.06;63.31
69247;BME280;56358;56.328;43.992;2024-02-23T07:52:00;101895.47;;;-5.34;63.59
69247;BME280;56358;56.328;43.992;2024-02-23T07:54:01;101913.06;;;-5.19;63.70
69247;BME280;56358;56.328;43.992;2024-02-23T07:56:02;101910.44;;;-5.19;63.76
69247;BME280;56358;56.328;43.992;2024-02-23T07:58:03;101864.94;;;-5.36;63.39
69247;BME280;56358;56.328;43.992;2024-02-23T08:00:05;101806.38;;;-5.57;63.54
69247;BME280;56358;56.328;43.992;2024-02-23T08:02:07;101911.50;;;-4.98;63.32
69247;BME280;56358;56.328;43.992;2024-02-23T08:04:08;101899.16;;;-5.13;62.79
69247;BME280;56358;56.328;43.992;2024-02-23T08:06:08;101908.97;;;-4.92;62.77
69247;BME280;56358;56.328;43.992;2024-02-23T08:08:09;101893.19;;;-5.00;62.99
69247;BME280;56358;56.328;43.992;2024-02-23T08:10:10;101860.75;;;-5.20;62.65
69247;BME280;56358;56.328;43.992;2024-02-23T08:12:13;101908.09;;;-4.93;62.50
69247;BME280;56358;56.328;43.992;2024-02-23T08:14:14;101922.84;;;-4.99;62.60
69247;BME280;56358;56.328;43.992;2024-02-23T08:16:16;101913.31;;;-4.93;62.49
69247;BME280;56358;56.328;43.992;2024-02-23T08:18:17;101917.75;;;-4.85;62.21
69247;BME280;56358;56.328;43.992;2024-02-23T08:20:18;101928.09;;;-4.99;62.05
69247;BME280;56358;56.328;43.992;2024-02-23T08:22:19;101917.63;;;-5.01;62.05
69247;BME280;56358;56.328;43.992;2024-02-23T08:24:19;101914.81;;;-5.19;63.19
69247;BME280;56358;56.328;43.992;2024-02-23T08:26:20;101954.25;;;-4.98;62.88
69247;BME280;56358;56.328;43.992;2024-02-23T08:28:21;101915.66;;;-5.20;62.42
69247;BME280;56358;56.328;43.992;2024-02-23T08:30:22;101878.88;;;-5.36;62.76
69247;BME280;56358;56.328;43.992;2024-02-23T08:32:22;101920.25;;;-4.98;62.15
69247;BME280;56358;56.328;43.992;2024-02-23T08:34:23;101942.88;;;-5.03;62.71
69247;BME280;56358;56.328;43.992;2024-02-23T08:36:25;101936.97;;;-4.80;62.61
69247;BME280;56358;56.328;43.992;2024-02-23T08:38:25;101929.97;;;-4.81;62.45
69247;BME280;56358;56.328;43.992;2024-02-23T08:40:26;101931.72;;;-4.83;62.82
69247;BME280;56358;56.328;43.992;2024-02-23T08:42:27;101944.97;;;-4.63;62.46
69247;BME280;56358;56.328;43.992;2024-02-23T08:44:28;101935.53;;;-4.43;61.72
69247;BME280;56358;56.328;43.992;2024-02-23T08:46:28;101939.19;;;-4.21;61.42
69247;BME280;56358;56.328;43.992;2024-02-23T08:48:29;101929.59;;;-4.17;60.54
69247;BME280;56358;56.328;43.992;2024-02-23T08:50:30;101936.66;;;-4.04;59.76
69247;BME280;56358;56.328;43.992;2024-02-23T08:52:30;101936.53;;;-4.27;59.74
69247;BME280;56358;56.328;43.992;2024-02-23T08:54:31;101947.97;;;-4.11;59.65
69247;BME280;56358;56.328;43.992;2024-02-23T08:56:37;101847.28;;;-4.61;60.06
69247;BME280;56358;56.328;43.992;2024-02-23T08:58:38;101935.75;;;-4.13;60.41
69247;BME280;56358;56.328;43.992;2024-02-23T09:00:39;101940.13;;;-4.06;59.98
69247;BME280;56358;56.328;43.992;2024-02-23T09:02:40;101913.56;;;-4.63;59.96
69247;BME280;56358;56.328;43.992;2024-02-23T09:04:42;101926.75;;;-4.49;60.72
69247;BME280;56358;56.328;43.992;2024-02-23T09:06:45;101940.78;;;-4.38;60.39
69247;BME280;56358;56.328;43.992;2024-02-23T09:08:46;101921.66;;;-4.34;60.36
69247;BME280;56358;56.328;43.992;2024-02-23T09:10:46;101928.69;;;-4.24;60.40
69247;BME280;56358;56.328;43.992;2024-02-23T09:12:47;101930.50;;;-4.16;60.66
69247;BME280;56358;56.328;43.992;2024-02-23T09:14:48;101931.41;;;-4.10;60.40
69247;BME280;56358;56.328;43.992;2024-02-23T09:16:49;101851.75;;;-4.44;60.18
69247;BME280;56358;56.328;43.992;2024-02-23T09:18:51;101925.25;;;-4.16;59.59
69247;BME280;56358;56.328;43.992;2024-02-23T09:20:52;101932.28;;;-4.05;60.24
69247;BME280;56358;56.328;43.992;2024-02-23T09:22:52;101924.56;;;-3.81;59.87
69247;BME280;56358;56.328;43.992;2024-02-23T09:24:53;101919.34;;;-3.75;59.38
69247;BME280;56358;56.328;43.992;2024-02-23T09:26:54;101936.00;;;-3.67;58.93
69247;BME280;56358;56.328;43.992;2024-02-23T09:28:55;101913.94;;;-4.05;59.58
69247;BME280;56358;56.328;43.992;2024-02-23T09:30:55;101927.13;;;-3.94;59.64
69247;BME280;56358;56.328;43.992;2024-02-23T09:32:56;101916.59;;;-4.01;60.11
69247;BME280;56358;56.328;43.992;2024-02-23T09:34:57;101936.81;;;-3.77;59.72
69247;BME280;56358;56.328;43.992;2024-02-23T09:36:57;101939.47;;;-3.65;59.67
69247;BME280;56358;56.328;43.992;2024-02-23T09:38:59;101928.16;;;-3.58;59.17
69247;BME280;56358;56.328;43.992;2024-02-23T09:40:59;101944.81;;;-3.49;58.73
69247;BME280;56358;56.328;43.992;2024-02-23T09:43:01;101931.69;;;-3.45;59.05
69247;BME280;56358;56.328;43.992;2024-02-23T09:45:06;101945.66;;;-3.50;58.72
69247;BME280;56358;56.328;43.992;2024-02-23T09:47:08;101951.78;;;-3.48;59.27
69247;BME280;56358;56.328;43.992;2024-02-23T09:49:11;101946.50;;;-3.62;58.48
69247;BME280;56358;56.328;43.992;2024-02-23T09:51:14;101953.44;;;-3.66;59.07
69247;BME280;56358;56.328;43.992;2024-02-23T09:53:16;101941.09;;;-3.93;59.18
69247;BME280;56358;56.328;43.992;2024-02-23T09:55:18;101962.13;;;-3.84;59.09
69247;BME280;56358;56.328;43.992;2024-02-23T09:57:22;101962.13;;;-3.78;59.08
69247;BME280;56358;56.328;43.992;2024-02-23T09:59:23;101964.63;;;-3.98;59.17
69247;BME280;56358;56.328;43.992;2024-02-23T10:01:29;101957.56;;;-4.14;59.63
69247;BME280;56358;56.328;43.992;2024-02-23T10:03:35;101961.81;;;-4.29;60.03
69247;BME280;56358;56.328;43.992;2024-02-23T10:05:37;101949.59;;;-4.28;60.77
69247;BME280;56358;56.328;43.992;2024-02-23T10:07:38;101940.06;;;-4.22;60.20
69247;BME280;56358;56.328;43.992;2024-02-23T10:09:39;101965.41;;;-4.19;60.03
69247;BME280;56358;56.328;43.992;2024-02-23T10:11:40;101956.66;;;-4.18;60.45
69247;BME280;56358;56.328;43.992;2024-02-23T10:13:41;101960.97;;;-4.25;60.43
69247;BME280;56358;56.328;43.992;2024-02-23T10:15:43;101954.91;;;-4.17;60.25
69247;BME280;56358;56.328;43.992;2024-02-23T10:17:43;101959.31;;;-4.13;60.12
69247;BME280;56358;56.328;43.992;2024-02-23T10:19:45;101964.63;;;-3.99;60.00
69247;BME280;56358;56.328;43.992;2024-02-23T10:21:46;101961.16;;;-4.00;60.20
69247;BME280;56358;56.328;43.992;2024-02-23T10:23:47;101962.97;;;-3.88;60.17
69247;BME280;56358;56.328;43.992;2024-02-23T10:25:50;101969.06;;;-3.84;59.56